EW3567 Weather Reports


Display with metric or nautical units.
time (UTC)temp
F
wind
direction
speed
MPH
gust
MPH
rain 1hr
in
rain 24hr
in
rain mn
in
humidity
%
barometer
mb
20191117064502 59 266 1.0 7.0 0.00 1.06 0.00 68 1006.6
20191117064018 59 254 3.0 9.0 0.00 1.06 0.00 67 1006.6
20191117063509 59 259 1.0 7.0 0.00 1.06 0.00 68 1006.5
20191117063113 58 199 1.0 7.0 0.00 0.21 0.00 68 1006.3
20191117063000 58 260 2.0 7.0 0.00 1.06 0.00 69 1006.6
20191117062459 58 268 1.0 6.0 0.00 1.06 0.00 69 1006.6
20191117062020 58 241 2.0 8.0 0.00 1.06 0.00 69 1006.5
20191117061510 58 265 2.0 8.0 0.00 1.06 0.00 68 1006.5
20191117061000 58 250 2.0 6.0 0.00 1.06 0.00 68 1006.5
20191117060458 58 251 3.0 7.0 0.00 1.06 0.00 68 1006.5
20191117060045 57 258 3.0 9.0 0.00 0.24 0.00 69 1006.3
20191117055956 58 242 3.0 9.0 0.00 1.18 0.00 68 1006.5
20191117055457 58 255 3.0 8.0 0.00 1.18 0.00 67 1006.5
20191117055016 58 245 3.0 8.0 0.00 1.18 0.00 67 1006.6
20191117054502 58 287 2.0 7.0 0.00 1.18 0.00 68 1006.6
20191117054022 57 277 1.0 7.0 0.00 1.18 0.00 69 1006.7
20191117053454 57 267 3.0 8.0 0.00 1.18 0.00 71 1006.5
20191117053018 57 266 4.0 8.0 0.00 1.18 0.00 72 1006.4
20191117052506 56 272 3.0 6.0 0.00 1.18 0.00 75 1006.5
20191117051956 54 279 1.0 3.0 0.00 1.18 0.00 79 1006.4
20191117051458 53 187 0.0 2.0 0.00 1.18 0.00 82 1006.5
20191117051018 53 183 1.0 2.0 0.00 1.18 0.00 82 1006.4
20191117050506 54 187 1.0 3.0 0.00 1.18 0.00 81 1006.5
20191117050109 53 187 1.0 2.0 0.00 0.24 0.00 80 1006.2
20191117045957 54 186 1.0 2.0 0.00 1.18 0.00 80 1006.4
20191117045458 54 185 1.0 2.0 0.00 1.18 0.00 80 1006.5
20191117045017 54 187 1.0 2.0 0.00 1.18 0.00 80 1006.5
20191117044531 54 189 0.0 2.0 0.00 0.24 0.00 79 1006.3
20191117044505 54 188 1.0 3.0 0.00 1.18 0.00 79 1006.5
20191117043959 55 186 2.0 3.0 0.00 1.18 0.00 77 1006.5
20191117043521 56 189 1.0 2.0 0.00 1.18 0.00 75 1006.7
20191117043020 56 201 0.0 3.0 0.00 0.24 0.00 74 1006.5
20191117042954 56 201 0.0 3.0 0.00 1.18 0.00 74 1006.7
20191117042504 56 203 1.0 3.0 0.00 1.18 0.00 75 1006.6
20191117041957 56 197 1.0 3.0 0.00 1.18 0.00 75 1006.7
20191117041500 56 206 0.0 2.0 0.00 1.18 0.00 76 1006.7
20191117040958 56 223 0.0 2.0 0.00 1.18 0.00 76 1006.8
20191117040459 57 227 1.0 4.0 0.00 1.18 0.00 75 1006.8
20191117040033 56 139 0.0 4.0 0.00 0.25 0.00 75 1006.7
20191117035954 57 232 0.0 4.0 0.00 1.26 0.00 75 1006.9
20191117035456 57 204 0.0 2.0 0.00 1.26 0.00 75 1006.8
20191117034956 57 267 0.0 2.0 0.00 1.26 0.00 76 1007.1
20191117034458 57 208 1.0 3.0 0.00 1.26 0.00 76 1007.3
20191117033955 57 231 1.0 3.0 0.00 1.26 0.00 75 1007.4
20191117033454 57 250 1.0 4.0 0.00 1.26 0.00 75 1007.4
20191117033022 58 212 1.0 4.0 0.00 1.26 0.00 74 1007.5
20191117032455 58 221 1.0 4.0 0.00 1.26 0.00 72 1007.4
20191117032004 59 258 1.0 4.0 0.00 1.26 0.00 72 1007.5
20191117031518 59 259 1.0 6.0 0.00 1.26 0.00 72 1007.6
20191117031020 59 253 3.0 8.0 0.00 1.26 0.00 71 1007.6
20191117030456 59 227 4.0 8.0 0.00 1.26 0.00 71 1007.5
20191117030139 58 298 3.0 10.0 0.00 0.25 0.00 71 1007.3
20191117030013 59 268 3.0 10.0 0.00 1.26 0.00 71 1007.6
20191117025456 59 229 3.0 10.0 0.00 1.26 0.00 71 1007.6
20191117024957 59 241 3.0 7.0 0.00 1.26 0.00 71 1007.5
20191117024640 58 273 3.0 7.0 0.00 0.25 0.00 71 1007.5
20191117024457 59 303 3.0 7.0 0.00 1.26 0.00 71 1007.7
20191117023957 59 289 3.0 10.0 0.00 1.26 0.00 70 1007.6
20191117023454 59 284 3.0 7.0 0.00 1.26 0.00 71 1007.6
20191117023137 58 291 1.0 8.0 0.00 0.25 0.00 71 1007.6
20191117022954 59 301 2.0 8.0 0.00 1.26 0.00 71 1007.8
20191117022456 59 281 3.0 11.0 0.00 1.26 0.00 70 1007.8
20191117022007 59 268 3.0 11.0 0.00 1.26 0.00 70 1007.9
20191117021700 59 233 1.0 5.0 0.00 0.25 0.00 70 1007.7
20191117021519 59 280 1.0 5.0 0.00 1.26 0.00 70 1008.0
20191117021010 59 275 1.0 7.0 0.00 1.26 0.00 69 1008.0
20191117020504 59 320 3.0 11.0 0.00 1.26 0.00 69 1007.9
20191117020128 59 277 4.0 11.0 0.00 0.25 0.00 69 1007.7
20191117020003 59 283 5.0 11.0 0.00 1.26 0.00 69 1007.8
20191117015521 59 285 2.0 7.0 0.00 1.26 0.00 70 1008.0
20191117015013 59 223 2.0 8.0 0.00 1.26 0.00 70 1007.8
20191117014508 59 244 3.0 8.0 0.00 1.26 0.00 70 1008.0
20191117013959 59 277 4.0 8.0 0.00 1.26 0.00 70 1008.1
20191117013456 59 252 4.0 8.0 0.00 1.26 0.00 69 1008.1
20191117013016 59 285 3.0 8.0 0.00 1.26 0.00 70 1008.3
20191117012509 59 310 2.0 8.0 0.00 1.26 0.00 69 1008.2
20191117012002 59 293 3.0 8.0 0.00 1.26 0.00 69 1008.1
20191117011520 59 247 3.0 9.0 0.00 1.26 0.00 69 1008.2
20191117010954 59 277 3.0 9.0 0.00 1.26 0.00 69 1008.2
20191117010518 59 266 2.0 9.0 0.00 1.26 0.00 69 1008.3
20191117010011 59 270 3.0 8.0 0.00 1.30 0.00 69 1008.1
20191117005503 59 280 3.0 10.0 0.00 1.30 0.00 70 1008.2
20191117004956 59 252 4.0 10.0 0.00 1.30 0.00 69 1008.1
20191117004459 59 300 4.0 8.0 0.00 1.30 0.00 69 1008.1
20191117004002 59 293 3.0 9.0 0.00 1.30 0.00 70 1008.3
20191117003501 59 289 3.0 11.0 0.00 1.30 0.00 69 1008.4
20191117003206 58 256 3.0 11.0 0.00 0.26 0.00 69 1008.2
20191117003022 59 283 4.0 11.0 0.00 1.30 0.00 70 1008.4
20191117002455 58 254 3.0 11.0 0.00 1.30 0.00 70 1008.5
20191117001954 58 267 3.0 11.0 0.00 1.30 0.00 70 1008.5
20191117001554 57 282 4.0 11.0 0.00 0.26 0.00 71 1008.4
20191117001454 58 215 5.0 11.0 0.00 1.30 0.00 71 1008.5
20191117000957 58 229 3.0 9.0 0.00 1.30 0.00 72 1008.6
20191117000519 58 248 2.0 9.0 0.00 1.30 0.00 72 1008.9
20191117000010 58 243 3.0 13.0 0.00 2.28 0.00 72 1008.7
20191116235500 58 234 5.0 13.0 0.00 2.28 0.00 72 1008.8
20191116235021 58 237 2.0 13.0 0.00 2.28 0.00 72 1008.8
20191116234512 58 251 6.0 12.0 0.00 2.28 0.00 71 1008.8
20191116234002 57 306 6.0 12.0 0.00 2.28 0.00 72 1008.8
20191116233501 57 251 4.0 10.0 0.00 2.28 0.00 72 1008.8
20191116233041 57 208 3.0 10.0 0.00 0.46 0.00 72 1008.6
20191116233000 57 195 4.0 10.0 0.00 2.28 0.00 73 1008.7
20191116232522 57 263 4.0 12.0 0.00 2.28 0.00 73 1008.8
20191116231955 57 235 2.0 12.0 0.00 2.28 0.00 74 1008.9
20191116231557 57 248 4.0 12.0 0.00 0.46 0.00 73 1008.8
20191116231456 57 218 5.0 12.0 0.00 2.28 0.00 73 1008.9
20191116230954 57 190 4.0 12.0 0.00 2.28 0.00 73 1009.0
20191116230517 57 193 5.0 12.0 0.00 2.28 0.00 73 1008.9
20191116230029 57 260 3.0 11.0 0.00 1.56 0.00 74 1008.9
20191116230007 57 237 3.0 11.0 0.00 7.80 0.46 73 1009.0
20191116225501 57 254 5.0 11.0 0.00 7.80 0.46 73 1009.1
20191116225021 57 264 2.0 11.0 0.00 7.80 0.46 73 1009.2
20191116224620 56 233 4.0 11.0 0.00 1.56 0.46 74 1009.2
20191116224456 57 66 4.0 11.0 0.00 7.80 0.46 74 1009.3
20191116223956 57 206 2.0 12.0 0.00 7.80 0.46 75 1009.3
20191116223520 57 264 5.0 13.0 0.00 7.80 0.46 75 1009.2
20191116223019 57 135 4.0 13.0 0.00 7.80 0.46 75 1009.2
20191116222454 56 240 3.0 11.0 0.00 7.80 0.46 76 1009.3
20191116221957 57 208 6.0 11.0 0.00 7.80 0.46 75 1009.3
20191116221521 57 220 4.0 11.0 0.00 7.80 0.46 75 1009.2
20191116221012 57 257 2.0 11.0 0.00 7.80 0.46 76 1009.4
20191116220455 56 250 4.0 9.0 0.00 7.80 0.46 76 1009.6
20191116220025 56 224 2.0 7.0 0.00 1.59 0.46 77 1009.6
20191116215955 56 224 3.0 7.0 0.00 7.95 0.46 77 1009.7
20191116215458 56 253 4.0 16.0 0.00 7.95 0.46 77 1009.8
20191116214955 56 243 5.0 16.0 0.00 7.95 0.46 76 1009.9
20191116214519 56 244 4.0 9.0 0.00 7.95 0.46 76 1009.8
20191116214012 56 210 4.0 9.0 0.00 7.95 0.46 77 1009.9
20191116213508 56 284 4.0 9.0 0.00 7.95 0.46 77 1009.8
20191116213157 55 217 2.0 8.0 0.00 1.59 0.46 77 1009.6
20191116212957 56 225 2.0 8.0 0.00 7.95 0.46 78 1009.8
20191116212459 56 271 4.0 11.0 0.00 7.95 0.46 77 1009.9
20191116212018 56 228 3.0 11.0 0.00 7.95 0.46 77 1009.9
20191116211543 56 297 2.0 13.0 0.00 1.59 0.46 77 1009.8
20191116211458 56 194 3.0 13.0 0.00 7.95 0.46 77 1009.9
20191116210955 56 244 1.0 8.0 0.00 7.95 0.46 77 1009.9
20191116210501 56 217 3.0 9.0 0.00 7.95 0.46 77 1010.1
20191116210111 55 261 3.0 9.0 0.00 1.59 0.46 78 1010.1
20191116205954 56 249 3.0 9.0 0.00 7.95 0.46 78 1010.2
20191116205505 56 272 2.0 10.0 0.00 7.95 0.46 78 1010.3
20191116204959 56 220 2.0 14.0 0.00 7.95 0.46 79 1010.4
20191116204618 55 262 4.0 14.0 0.00 1.59 0.46 78 1010.3
20191116204459 56 87 5.0 14.0 0.00 7.95 0.46 78 1010.5
20191116203957 56 29 5.0 14.0 0.00 7.95 0.46 78 1010.6
20191116203457 56 282 7.0 12.0 0.00 7.95 0.46 78 1010.5
20191116202955 55 189 5.0 14.0 0.00 7.95 0.46 79 1010.6
20191116202459 55 263 4.0 18.0 0.00 7.95 0.46 79 1010.5
20191116201957 55 201 8.0 18.0 0.00 7.95 0.46 78 1010.4
20191116201605 54 222 4.0 11.0 0.00 1.59 0.46 79 1010.4
20191116201455 55 254 4.0 11.0 0.00 7.95 0.46 79 1010.5
20191116200955 55 275 5.0 13.0 0.00 7.95 0.46 80 1010.8
20191116200503 55 100 6.0 14.0 0.00 7.95 0.46 80 1011.0
20191116200155 54 297 6.0 14.0 0.00 1.59 0.46 81 1010.9
20191116200021 55 233 6.0 14.0 0.00 7.95 0.46 81 1011.1
20191116195512 54 210 4.0 15.0 0.00 7.95 0.46 81 1011.1
20191116194955 54 217 5.0 16.0 0.00 7.95 0.46 82 1011.1
20191116194611 53 144 5.0 16.0 0.00 1.59 0.46 82 1011.0
20191116194455 54 198 6.0 16.0 0.00 7.95 0.46 82 1011.2
20191116194012 54 61 3.0 13.0 0.04 7.95 0.46 82 1011.2
20191116193504 54 140 2.0 13.0 0.04 7.95 0.46 82 1011.3
20191116193124 53 125 4.0 11.0 0.01 1.59 0.46 82 1011.2
20191116192957 54 84 4.0 11.0 0.04 7.95 0.46 82 1011.2
20191116192459 54 119 5.0 11.0 0.04 7.95 0.46 82 1011.2
20191116192019 54 96 3.0 9.0 0.04 7.95 0.46 83 1011.5
20191116191716 53 89 3.0 9.0 0.01 1.59 0.46 83 1011.4
20191116191459 54 125 3.0 9.0 0.04 7.95 0.46 83 1011.6
20191116190959 53 92 1.0 9.0 0.08 7.95 0.46 84 1011.5
20191116190457 53 72 2.0 5.0 0.12 7.95 0.46 85 1011.4
20191116190019 53 77 1.0 7.0 0.12 7.95 0.46 87 1011.4
20191116185459 52 75 2.0 7.0 0.16 7.95 0.46 88 1011.6
20191116184959 52 60 3.0 5.0 0.16 7.95 0.46 89 1011.7
20191116184716 51 54 0.0 3.0 0.04 1.59 0.46 91 1011.7
20191116184458 52 86 0.0 3.0 0.20 7.95 0.46 91 1011.9
20191116184021 51 91 1.0 1.0 0.16 7.91 0.45 91 1012.0
20191116183455 51 39 0.0 2.0 0.16 7.91 0.45 92 1012.1
20191116183013 51 39 0.0 2.0 0.20 7.91 0.45 93 1012.2
20191116182505 51 27 0.0 1.0 0.20 7.91 0.45 94 1012.4
20191116182019 51 27 0.0 1.0 0.24 7.91 0.45 94 1012.6
20191116181522 51 26 0.0 1.0 0.28 7.91 0.45 93 1012.7
20191116181016 51 27 0.0 1.0 0.28 7.87 0.44 92 1012.8
20191116180504 51 27 1.0 3.0 0.28 7.83 0.43 92 1012.8
20191116180023 51 28 1.0 3.0 0.31 7.83 0.43 92 1012.8
20191116175524 51 36 1.0 3.0 0.31 7.80 0.43 92 1012.9
20191116174955 51 41 1.0 3.0 0.35 7.80 0.43 92 1012.8
20191116174626 51 24 1.0 3.0 0.07 1.55 0.42 92 1012.8
20191116174502 51 25 1.0 3.0 0.35 7.76 0.42 92 1013.0
20191116174022 52 14 1.0 2.0 0.43 7.76 0.42 92 1013.0
20191116173455 52 33 1.0 2.0 0.47 7.76 0.42 91 1013.0
20191116173109 51 35 1.0 2.0 0.09 1.54 0.42 91 1012.9
20191116172955 52 37 1.0 2.0 0.47 7.72 0.41 91 1013.1
20191116172505 52 14 0.0 2.0 0.51 7.72 0.41 91 1013.2
20191116172019 52 37 0.0 2.0 0.47 7.68 0.40 92 1013.3
20191116171520 52 83 0.0 1.0 0.47 7.64 0.39 92 1013.4
20191116171014 51 37 0.0 1.0 0.43 7.60 0.39 93 1013.5
20191116170503 51 43 0.0 1.0 0.43 7.56 0.38 93 1013.5
20191116170021 52 45 0.0 1.0 0.39 7.52 0.37 93 1013.4
20191116165522 52 112 0.0 1.0 0.39 7.48 0.36 93 1013.5
20191116165014 52 119 0.0 0.0 0.35 7.44 0.35 92 1013.5
20191116164641 52 119 0.0 0.0 0.07 1.48 0.35 92 1013.3
20191116164514 52 119 0.0 0.0 0.35 7.40 0.35 92 1013.5
20191116163955 52 119 0.0 1.0 0.31 7.32 0.33 91 1013.5
20191116163458 52 119 0.0 2.0 0.28 7.28 0.32 90 1013.5
20191116163018 53 118 1.0 2.0 0.24 7.24 0.31 90 1013.6
20191116162507 52 62 0.0 1.0 0.20 7.20 0.31 91 1013.6
20191116162007 53 62 0.0 0.0 0.20 7.20 0.31 91 1013.5
20191116161558 52 62 0.0 0.0 0.03 1.43 0.30 91 1013.2
20191116161508 53 62 0.0 0.0 0.16 7.17 0.30 90 1013.4
20191116161000 53 103 0.0 1.0 0.16 7.17 0.30 90 1013.3
20191116160456 53 103 0.0 1.0 0.12 7.13 0.29 90 1013.3
20191116160124 52 162 0.0 1.0 0.02 1.43 0.28 91 1013.1
20191116155955 53 162 0.0 1.0 0.08 7.09 0.28 91 1013.3
20191116155456 53 162 0.0 1.0 0.08 7.09 0.28 92 1013.1
20191116155018 53 162 0.0 1.0 0.08 7.09 0.28 92 1013.0
20191116154553 53 162 0.0 1.0 0.01 1.41 0.28 93 1012.8
20191116154506 53 162 0.0 0.0 0.04 7.05 0.28 93 1013.0
20191116154018 53 162 0.0 0.0 0.00 7.01 0.27 92 1012.9
20191116153512 53 162 0.0 0.0 0.00 7.01 0.27 92 1012.8
20191116153049 53 162 0.0 0.0 0.00 1.40 0.27 91 1012.5
20191116153001 54 162 0.0 0.0 0.00 7.01 0.27 91 1012.7
20191116152459 54 162 0.0 1.0 0.00 7.01 0.27 91 1012.6
20191116152023 54 162 0.0 1.0 0.00 7.01 0.27 90 1012.6
20191116151518 54 162 0.0 1.0 0.00 7.01 0.27 90 1012.6
20191116151013 54 162 0.0 1.0 0.00 7.01 0.27 90 1012.5
20191116150506 54 162 0.0 1.0 0.00 7.01 0.27 89 1012.5
20191116150153 54 162 0.0 1.0 0.00 1.40 0.27 89 1012.3
20191116150018 54 162 0.0 1.0 0.00 7.01 0.27 89 1012.4
20191116145455 54 162 0.0 1.0 0.00 7.01 0.27 89 1012.5
20191116145009 54 163 0.0 1.0 0.00 7.01 0.27 89 1012.5
20191116144701 54 164 0.0 1.0 0.00 1.40 0.27 90 1012.3
20191116144500 54 164 0.0 1.0 0.00 7.01 0.27 90 1012.6
20191116143959 54 164 0.0 1.0 0.00 7.01 0.27 90 1012.6
20191116143500 55 164 0.0 0.0 0.00 7.01 0.27 91 1012.5
20191116143017 55 164 0.0 0.0 0.00 7.01 0.27 90 1012.4
20191116142508 55 164 0.0 0.0 0.00 7.01 0.27 90 1012.3
20191116141958 55 164 0.0 0.0 0.00 7.01 0.27 89 1012.3
20191116141656 55 164 0.0 0.0 0.00 1.40 0.27 89 1012.0
20191116141518 55 164 0.0 0.0 0.00 7.01 0.27 89 1012.3
20191116141012 55 164 0.0 1.0 0.00 7.01 0.27 89 1012.4
20191116140502 56 164 0.0 1.0 0.00 7.01 0.27 88 1012.4
20191116140124 55 164 0.0 1.0 0.00 1.40 0.27 87 1012.1
20191116140022 56 164 0.0 1.0 0.00 7.01 0.27 87 1012.4
20191116135517 56 164 0.0 1.0 0.00 7.01 0.27 88 1012.4
20191116135008 56 164 0.0 1.0 0.00 7.01 0.27 87 1012.5
20191116134632 56 164 0.0 0.0 0.00 1.40 0.27 86 1012.4
20191116134459 56 163 0.0 0.0 0.00 7.01 0.27 87 1012.6
20191116134022 56 164 0.0 0.0 0.00 7.01 0.27 86 1012.6
20191116133456 56 164 0.0 0.0 0.00 7.01 0.27 85 1012.7
20191116133014 56 164 0.0 0.0 0.00 7.01 0.27 85 1012.8
20191116132504 57 164 0.0 0.0 0.00 7.01 0.27 85 1012.8
20191116131957 57 164 0.0 1.0 0.00 7.01 0.27 85 1012.7
20191116131520 57 164 0.0 1.0 0.00 7.01 0.27 84 1012.8
20191116130955 57 191 0.0 1.0 0.00 7.01 0.27 85 1012.8
20191116130459 57 201 0.0 1.0 0.00 7.01 0.27 84 1012.7
20191116130033 56 203 0.0 1.0 0.00 1.40 0.27 85 1012.4
20191116125956 57 202 0.0 1.0 0.00 7.01 0.27 85 1012.7
20191116125520 57 202 0.0 1.0 0.00 7.01 0.27 85 1012.7
20191116125013 57 221 0.0 2.0 0.00 7.01 0.27 85 1012.7
20191116124510 57 191 0.0 2.0 0.00 7.01 0.27 85 1012.7
20191116124021 57 211 1.0 3.0 0.00 7.01 0.27 84 1012.7
20191116123519 57 193 1.0 3.0 0.00 7.01 0.27 85 1012.7
20191116123019 57 215 0.0 1.0 0.00 7.01 0.27 85 1012.7
20191116122456 57 216 0.0 1.0 0.00 7.01 0.27 85 1012.8
20191116122012 57 215 0.0 1.0 0.00 7.01 0.27 85 1012.8
20191116121455 57 215 0.0 1.0 0.00 7.01 0.27 86 1012.9
20191116121016 57 216 0.0 1.0 0.00 7.01 0.27 85 1012.9
20191116120512 57 216 0.0 1.0 0.00 7.01 0.27 85 1012.9
20191116120110 56 213 0.0 1.0 0.00 1.40 0.27 85 1012.6
20191116115957 57 213 0.0 1.0 0.00 7.01 0.27 86 1012.9
20191116115521 57 202 0.0 1.0 0.00 7.01 0.27 85 1012.9
20191116115021 57 202 0.0 1.0 0.00 7.01 0.27 86 1012.9
20191116114524 56 202 0.0 1.0 0.00 1.40 0.27 86 1012.7
20191116114455 57 202 0.0 1.0 0.00 7.01 0.27 86 1013.0
20191116114004 57 221 0.0 1.0 0.00 7.01 0.27 85 1013.0
20191116113520 57 221 0.0 1.0 0.00 7.01 0.27 86 1013.0
20191116113014 56 221 0.0 1.0 0.00 7.01 0.27 85 1013.1
20191116112509 56 222 0.0 1.0 0.00 7.01 0.27 86 1013.2
20191116111958 56 221 0.0 1.0 0.00 7.01 0.27 86 1013.1
20191116111638 56 227 0.0 1.0 0.00 1.40 0.27 85 1012.8
20191116111500 56 227 0.0 1.0 0.00 7.01 0.27 85 1013.1
20191116111018 56 227 0.0 1.0 0.00 7.01 0.27 85 1012.9
20191116110511 56 251 0.0 0.0 0.00 7.01 0.27 87 1012.9
20191116110032 56 251 0.0 1.0 0.00 1.40 0.27 87 1012.7
20191116105957 56 251 0.0 1.0 0.00 7.01 0.27 86 1013.0
20191116105520 56 252 0.0 1.0 0.00 7.01 0.27 85 1013.0
20191116105022 56 252 0.0 0.0 0.00 7.01 0.27 87 1013.1
20191116104457 56 252 0.0 1.0 0.00 7.01 0.27 89 1013.2
20191116104014 56 252 0.0 1.0 0.00 7.01 0.27 88 1013.3
20191116103456 56 193 0.0 1.0 0.00 7.01 0.27 88 1013.3
20191116102955 56 216 0.0 2.0 0.00 7.01 0.27 88 1013.3
20191116102509 56 223 1.0 2.0 0.00 7.01 0.27 89 1013.3
20191116101957 56 202 0.0 3.0 0.00 7.01 0.27 90 1013.3
20191116101545 55 202 0.0 3.0 0.00 1.40 0.27 89 1013.0
20191116101458 55 200 1.0 3.0 0.00 7.01 0.27 89 1013.3
20191116100956 55 131 0.0 3.0 0.00 7.01 0.27 90 1013.3
20191116100458 55 237 1.0 3.0 0.00 7.01 0.27 89 1013.3
20191116100039 55 335 0.0 1.0 0.00 1.40 0.27 89 1012.8
20191116095957 55 335 0.0 1.0 0.00 7.01 0.27 89 1013.1
20191116095455 55 195 0.0 1.0 0.00 7.01 0.27 87 1013.1
20191116094955 55 221 0.0 0.0 0.00 7.01 0.27 89 1013.0
20191116094457 55 221 0.0 1.0 0.00 7.01 0.27 89 1013.0
20191116093956 55 221 0.0 1.0 0.00 7.01 0.27 89 1013.0
20191116093501 54 221 0.0 1.0 0.00 7.01 0.27 90 1012.9
20191116092957 54 220 0.0 1.0 0.00 7.01 0.27 90 1012.8
20191116092458 54 220 0.0 1.0 0.00 7.01 0.27 90 1012.8
20191116091958 54 220 0.0 1.0 0.00 7.01 0.27 90 1012.8
20191116091456 54 220 0.0 1.0 0.00 7.01 0.27 90 1012.8
20191116090957 54 220 0.0 2.0 0.00 7.01 0.27 88 1012.8
20191116090457 54 104 1.0 2.0 0.00 7.01 0.27 87 1012.7
20191116090013 54 127 1.0 2.0 0.00 7.01 0.27 87 1012.7
20191116085502 53 127 0.0 1.0 0.00 7.01 0.27 88 1012.7
20191116085022 53 138 0.0 1.0 0.00 7.01 0.27 89 1012.7
20191116084523 52 138 0.0 2.0 0.00 1.40 0.27 89 1012.3
20191116084455 53 138 0.0 2.0 0.00 7.01 0.27 89 1012.6
20191116084017 53 137 0.0 2.0 0.00 7.01 0.27 89 1012.5
20191116083506 53 120 0.0 1.0 0.00 7.01 0.27 89 1012.5
20191116083006 52 119 0.0 1.0 0.00 7.01 0.27 89 1012.5
20191116082509 52 119 0.0 2.0 0.00 7.01 0.27 89 1012.4
20191116082002 52 115 0.0 2.0 0.00 7.01 0.27 89 1012.4
20191116081555 52 89 1.0 2.0 0.00 1.40 0.27 88 1012.1
20191116081501 52 89 1.0 2.0 0.00 7.01 0.27 88 1012.3
20191116081021 52 118 1.0 2.0 0.00 7.01 0.27 89 1012.2
20191116080455 52 86 0.0 1.0 0.00 7.01 0.27 90 1012.2
20191116080122 51 85 0.0 1.0 0.00 1.40 0.27 90 1011.9
20191116080013 52 85 0.0 1.0 0.00 7.01 0.27 90 1012.1
20191116075505 52 85 0.0 1.0 0.08 7.01 0.27 90 1011.9
20191116074956 51 90 0.0 1.0 0.08 7.01 0.27 91 1011.9
20191116074529 51 91 0.0 1.0 0.02 1.40 0.27 92 1011.6
20191116074458 51 90 0.0 0.0 0.12 7.01 0.27 92 1011.9
20191116074019 51 90 0.0 0.0 0.12 7.01 0.27 92 1011.9
20191116073509 51 90 0.0 0.0 0.12 7.01 0.27 92 1011.9
20191116073020 51 90 0.0 0.0 0.12 7.01 0.27 92 1011.9
20191116072455 51 90 0.0 1.0 0.12 7.01 0.27 91 1012.0
20191116071956 52 90 0.0 1.0 0.12 7.01 0.27 91 1011.9
20191116071620 51 89 0.0 3.0 0.02 1.40 0.27 90 1011.7
20191116071501 52 89 0.0 3.0 0.12 7.01 0.27 90 1012.0
20191116070956 52 91 0.0 3.0 0.12 7.01 0.27 88 1012.0
20191116070458 52 26 0.0 3.0 0.12 7.01 0.27 87 1012.0
20191116070101 52 331 0.0 6.0 0.02 1.40 0.27 86 1011.8
20191116065957 53 299 1.0 6.0 0.12 7.01 0.27 86 1012.0
20191116065459 52 320 2.0 6.0 0.04 6.93 0.25 86 1012.0
20191116064955 52 341 0.0 1.0 0.04 6.93 0.25 90 1012.0